sensor_id;sensor_type;location;lat;lon;timestamp;P1;durP1;ratioP1;P2;durP2;ratioP2
12024;SDS011;6073;53.230;10.444;2023-04-26T00:01:21;8.23;;;2.50;;
12024;SDS011;6073;53.230;10.444;2023-04-26T00:03:47;6.93;;;2.50;;
12024;SDS011;6073;53.230;10.444;2023-04-26T00:06:13;7.80;;;2.63;;
12024;SDS011;6073;53.230;10.444;2023-04-26T00:08:40;8.63;;;2.25;;
12024;SDS011;6073;53.230;10.444;2023-04-26T00:11:08;5.50;;;2.58;;
12024;SDS011;6073;53.230;10.444;2023-04-26T00:13:34;7.05;;;2.53;;
12024;SDS011;6073;53.230;10.444;2023-04-26T00:16:01;11.30;;;4.13;;
12024;SDS011;6073;53.230;10.444;2023-04-26T00:18:27;8.65;;;2.65;;
12024;SDS011;6073;53.230;10.444;2023-04-26T00:20:53;6.55;;;2.38;;
12024;SDS011;6073;53.230;10.444;2023-04-26T00:23:18;6.47;;;2.92;;
12024;SDS011;6073;53.230;10.444;2023-04-26T00:25:44;7.65;;;2.50;;
12024;SDS011;6073;53.230;10.444;2023-04-26T00:28:10;6.30;;;2.20;;
12024;SDS011;6073;53.230;10.444;2023-04-26T00:30:35;4.47;;;2.35;;
12024;SDS011;6073;53.230;10.444;2023-04-26T00:33:05;6.75;;;2.25;;
12024;SDS011;6073;53.230;10.444;2023-04-26T00:35:31;5.07;;;2.55;;
12024;SDS011;6073;53.230;10.444;2023-04-26T00:37:56;11.32;;;3.65;;
12024;SDS011;6073;53.230;10.444;2023-04-26T00:40:22;8.38;;;2.67;;
12024;SDS011;6073;53.230;10.444;2023-04-26T00:42:47;5.63;;;2.40;;
12024;SDS011;6073;53.230;10.444;2023-04-26T00:45:13;6.45;;;2.60;;
12024;SDS011;6073;53.230;10.444;2023-04-26T00:47:38;11.27;;;2.90;;
12024;SDS011;6073;53.230;10.444;2023-04-26T00:50:05;4.13;;;2.22;;
12024;SDS011;6073;53.230;10.444;2023-04-26T00:52:31;4.13;;;2.28;;
12024;SDS011;6073;53.230;10.444;2023-04-26T00:54:57;6.07;;;2.45;;
12024;SDS011;6073;53.230;10.444;2023-04-26T00:57:23;4.50;;;2.35;;
12024;SDS011;6073;53.230;10.444;2023-04-26T00:59:49;7.53;;;2.30;;
12024;SDS011;6073;53.230;10.444;2023-04-26T01:02:15;6.50;;;2.83;;
12024;SDS011;6073;53.230;10.444;2023-04-26T01:04:41;12.60;;;3.17;;
12024;SDS011;6073;53.230;10.444;2023-04-26T01:07:09;6.00;;;2.40;;
12024;SDS011;6073;53.230;10.444;2023-04-26T01:09:35;5.40;;;2.38;;
12024;SDS011;6073;53.230;10.444;2023-04-26T01:12:01;6.05;;;2.20;;
12024;SDS011;6073;53.230;10.444;2023-04-26T01:14:27;5.85;;;2.10;;
12024;SDS011;6073;53.230;10.444;2023-04-26T01:16:53;7.47;;;3.03;;
12024;SDS011;6073;53.230;10.444;2023-04-26T01:19:20;7.22;;;3.20;;
12024;SDS011;6073;53.230;10.444;2023-04-26T01:24:29;6.15;;;2.53;;
12024;SDS011;6073;53.230;10.444;2023-04-26T01:26:59;5.15;;;3.00;;
12024;SDS011;6073;53.230;10.444;2023-04-26T01:29:25;8.32;;;2.80;;
12024;SDS011;6073;53.230;10.444;2023-04-26T01:31:51;6.22;;;2.80;;
12024;SDS011;6073;53.230;10.444;2023-04-26T01:34:16;6.95;;;2.50;;
12024;SDS011;6073;53.230;10.444;2023-04-26T01:36:42;3.50;;;2.55;;
12024;SDS011;6073;53.230;10.444;2023-04-26T01:39:07;6.07;;;2.85;;
12024;SDS011;6073;53.230;10.444;2023-04-26T01:41:33;8.25;;;3.15;;
12024;SDS011;6073;53.230;10.444;2023-04-26T01:43:59;7.30;;;2.60;;
12024;SDS011;6073;53.230;10.444;2023-04-26T01:46:25;5.25;;;2.58;;
12024;SDS011;6073;53.230;10.444;2023-04-26T01:48:50;7.25;;;2.70;;
12024;SDS011;6073;53.230;10.444;2023-04-26T01:51:16;5.85;;;2.70;;
12024;SDS011;6073;53.230;10.444;2023-04-26T01:53:42;10.25;;;3.13;;
12024;SDS011;6073;53.230;10.444;2023-04-26T01:56:07;7.60;;;3.28;;
12024;SDS011;6073;53.230;10.444;2023-04-26T01:58:33;6.93;;;3.47;;
12024;SDS011;6073;53.230;10.444;2023-04-26T02:01:05;9.15;;;2.80;;
12024;SDS011;6073;53.230;10.444;2023-04-26T02:03:32;7.13;;;2.97;;
12024;SDS011;6073;53.230;10.444;2023-04-26T02:05:57;13.15;;;3.50;;
12024;SDS011;6073;53.230;10.444;2023-04-26T02:08:23;7.85;;;3.15;;
12024;SDS011;6073;53.230;10.444;2023-04-26T02:10:49;7.82;;;3.08;;
12024;SDS011;6073;53.230;10.444;2023-04-26T02:13:14;12.55;;;4.25;;
12024;SDS011;6073;53.230;10.444;2023-04-26T02:15:40;9.32;;;3.83;;
12024;SDS011;6073;53.230;10.444;2023-04-26T02:18:06;9.32;;;3.92;;
12024;SDS011;6073;53.230;10.444;2023-04-26T02:20:33;7.57;;;3.65;;
12024;SDS011;6073;53.230;10.444;2023-04-26T02:23:00;9.40;;;3.85;;
12024;SDS011;6073;53.230;10.444;2023-04-26T02:25:25;10.10;;;3.35;;
12024;SDS011;6073;53.230;10.444;2023-04-26T02:27:51;10.45;;;4.03;;
12024;SDS011;6073;53.230;10.444;2023-04-26T02:30:16;6.43;;;3.28;;
12024;SDS011;6073;53.230;10.444;2023-04-26T02:32:42;7.95;;;3.08;;
12024;SDS011;6073;53.230;10.444;2023-04-26T02:35:07;9.90;;;3.30;;
12024;SDS011;6073;53.230;10.444;2023-04-26T02:37:33;8.85;;;3.35;;
12024;SDS011;6073;53.230;10.444;2023-04-26T02:39:59;10.60;;;3.60;;
12024;SDS011;6073;53.230;10.444;2023-04-26T02:42:24;11.77;;;3.58;;
12024;SDS011;6073;53.230;10.444;2023-04-26T02:44:50;7.72;;;3.47;;
12024;SDS011;6073;53.230;10.444;2023-04-26T02:47:16;9.57;;;3.47;;
12024;SDS011;6073;53.230;10.444;2023-04-26T02:49:41;6.68;;;3.17;;
12024;SDS011;6073;53.230;10.444;2023-04-26T02:52:07;7.35;;;3.60;;
12024;SDS011;6073;53.230;10.444;2023-04-26T02:54:32;8.02;;;3.10;;
12024;SDS011;6073;53.230;10.444;2023-04-26T02:56:58;10.63;;;3.33;;
12024;SDS011;6073;53.230;10.444;2023-04-26T02:59:23;6.38;;;3.65;;
12024;SDS011;6073;53.230;10.444;2023-04-26T03:01:49;4.93;;;2.78;;
12024;SDS011;6073;53.230;10.444;2023-04-26T03:04:14;6.05;;;3.00;;
12024;SDS011;6073;53.230;10.444;2023-04-26T03:06:41;10.32;;;3.78;;
12024;SDS011;6073;53.230;10.444;2023-04-26T03:09:07;9.43;;;3.45;;
12024;SDS011;6073;53.230;10.444;2023-04-26T03:11:32;9.32;;;3.30;;
12024;SDS011;6073;53.230;10.444;2023-04-26T03:13:58;6.65;;;3.30;;
12024;SDS011;6073;53.230;10.444;2023-04-26T03:16:26;8.27;;;3.60;;
12024;SDS011;6073;53.230;10.444;2023-04-26T03:18:52;6.82;;;3.28;;
12024;SDS011;6073;53.230;10.444;2023-04-26T03:21:18;9.80;;;3.38;;
12024;SDS011;6073;53.230;10.444;2023-04-26T03:23:44;11.90;;;3.65;;
12024;SDS011;6073;53.230;10.444;2023-04-26T03:26:10;10.02;;;3.40;;
12024;SDS011;6073;53.230;10.444;2023-04-26T03:28:36;10.20;;;3.40;;
12024;SDS011;6073;53.230;10.444;2023-04-26T03:31:01;9.45;;;3.67;;
12024;SDS011;6073;53.230;10.444;2023-04-26T03:33:29;8.02;;;3.53;;
12024;SDS011;6073;53.230;10.444;2023-04-26T03:35:55;9.57;;;3.30;;
12024;SDS011;6073;53.230;10.444;2023-04-26T03:38:21;8.52;;;3.38;;
12024;SDS011;6073;53.230;10.444;2023-04-26T03:40:48;8.45;;;3.40;;
12024;SDS011;6073;53.230;10.444;2023-04-26T03:43:14;7.75;;;3.92;;
12024;SDS011;6073;53.230;10.444;2023-04-26T03:45:40;5.65;;;3.05;;
12024;SDS011;6073;53.230;10.444;2023-04-26T03:48:05;12.13;;;3.53;;
12024;SDS011;6073;53.230;10.444;2023-04-26T03:50:31;8.45;;;3.25;;
12024;SDS011;6073;53.230;10.444;2023-04-26T03:52:56;7.28;;;3.63;;
12024;SDS011;6073;53.230;10.444;2023-04-26T03:55:22;7.18;;;3.85;;
12024;SDS011;6073;53.230;10.444;2023-04-26T03:57:47;7.65;;;3.65;;
12024;SDS011;6073;53.230;10.444;2023-04-26T04:00:13;8.35;;;3.55;;
12024;SDS011;6073;53.230;10.444;2023-04-26T04:02:39;7.63;;;3.05;;
12024;SDS011;6073;53.230;10.444;2023-04-26T04:05:06;8.95;;;3.92;;
12024;SDS011;6073;53.230;10.444;2023-04-26T04:07:32;8.18;;;3.22;;
12024;SDS011;6073;53.230;10.444;2023-04-26T04:09:58;6.38;;;2.97;;
12024;SDS011;6073;53.230;10.444;2023-04-26T04:12:24;5.07;;;3.35;;
12024;SDS011;6073;53.230;10.444;2023-04-26T04:14:49;10.18;;;3.40;;
12024;SDS011;6073;53.230;10.444;2023-04-26T04:17:16;8.63;;;3.25;;
12024;SDS011;6073;53.230;10.444;2023-04-26T04:19:42;6.75;;;3.40;;
12024;SDS011;6073;53.230;10.444;2023-04-26T04:22:08;7.32;;;3.50;;
12024;SDS011;6073;53.230;10.444;2023-04-26T04:24:34;8.30;;;3.63;;
12024;SDS011;6073;53.230;10.444;2023-04-26T04:27:00;7.95;;;3.42;;
12024;SDS011;6073;53.230;10.444;2023-04-26T04:29:25;7.47;;;3.47;;
12024;SDS011;6073;53.230;10.444;2023-04-26T04:31:51;5.43;;;2.90;;
12024;SDS011;6073;53.230;10.444;2023-04-26T04:34:17;10.65;;;3.60;;
12024;SDS011;6073;53.230;10.444;2023-04-26T04:36:42;7.30;;;3.47;;
12024;SDS011;6073;53.230;10.444;2023-04-26T04:39:08;5.20;;;3.05;;
12024;SDS011;6073;53.230;10.444;2023-04-26T04:41:37;7.40;;;3.60;;
12024;SDS011;6073;53.230;10.444;2023-04-26T04:44:04;9.15;;;3.42;;
12024;SDS011;6073;53.230;10.444;2023-04-26T04:46:30;8.80;;;3.38;;
12024;SDS011;6073;53.230;10.444;2023-04-26T04:48:55;9.63;;;3.92;;
12024;SDS011;6073;53.230;10.444;2023-04-26T04:51:21;11.85;;;4.18;;
12024;SDS011;6073;53.230;10.444;2023-04-26T04:53:46;7.22;;;3.22;;
12024;SDS011;6073;53.230;10.444;2023-04-26T04:56:12;7.45;;;3.88;;
12024;SDS011;6073;53.230;10.444;2023-04-26T04:58:38;5.20;;;3.05;;
12024;SDS011;6073;53.230;10.444;2023-04-26T05:01:04;6.82;;;3.10;;
12024;SDS011;6073;53.230;10.444;2023-04-26T05:03:30;6.13;;;2.80;;
12024;SDS011;6073;53.230;10.444;2023-04-26T05:05:57;4.45;;;2.85;;
12024;SDS011;6073;53.230;10.444;2023-04-26T05:08:23;4.25;;;2.53;;
12024;SDS011;6073;53.230;10.444;2023-04-26T05:10:49;4.95;;;2.70;;
12024;SDS011;6073;53.230;10.444;2023-04-26T05:13:15;7.40;;;2.75;;
12024;SDS011;6073;53.230;10.444;2023-04-26T05:15:41;6.07;;;3.03;;
12024;SDS011;6073;53.230;10.444;2023-04-26T05:18:06;5.72;;;2.80;;
12024;SDS011;6073;53.230;10.444;2023-04-26T05:20:32;5.55;;;2.60;;
12024;SDS011;6073;53.230;10.444;2023-04-26T05:22:58;3.45;;;2.50;;
12024;SDS011;6073;53.230;10.444;2023-04-26T05:25:23;6.60;;;2.90;;
12024;SDS011;6073;53.230;10.444;2023-04-26T05:27:49;5.93;;;2.67;;
12024;SDS011;6073;53.230;10.444;2023-04-26T05:30:15;6.10;;;2.97;;
12024;SDS011;6073;53.230;10.444;2023-04-26T05:32:41;8.52;;;2.95;;
12024;SDS011;6073;53.230;10.444;2023-04-26T05:35:06;5.43;;;2.67;;
12024;SDS011;6073;53.230;10.444;2023-04-26T05:37:32;5.80;;;3.10;;
12024;SDS011;6073;53.230;10.444;2023-04-26T05:39:58;4.65;;;2.47;;
12024;SDS011;6073;53.230;10.444;2023-04-26T05:42:24;6.35;;;2.70;;
12024;SDS011;6073;53.230;10.444;2023-04-26T05:44:50;4.43;;;2.58;;
12024;SDS011;6073;53.230;10.444;2023-04-26T05:47:15;7.30;;;2.90;;
12024;SDS011;6073;53.230;10.444;2023-04-26T05:49:41;7.03;;;2.50;;
12024;SDS011;6073;53.230;10.444;2023-04-26T05:52:06;6.47;;;2.75;;
12024;SDS011;6073;53.230;10.444;2023-04-26T05:54:32;6.18;;;2.50;;
12024;SDS011;6073;53.230;10.444;2023-04-26T05:56:57;4.03;;;2.10;;
12024;SDS011;6073;53.230;10.444;2023-04-26T05:59:23;6.20;;;2.53;;
12024;SDS011;6073;53.230;10.444;2023-04-26T06:01:48;6.20;;;2.90;;
12024;SDS011;6073;53.230;10.444;2023-04-26T06:04:14;4.82;;;2.83;;
12024;SDS011;6073;53.230;10.444;2023-04-26T06:06:39;4.20;;;2.35;;
12024;SDS011;6073;53.230;10.444;2023-04-26T06:09:05;4.80;;;2.50;;
12024;SDS011;6073;53.230;10.444;2023-04-26T06:11:30;6.20;;;2.38;;
12024;SDS011;6073;53.230;10.444;2023-04-26T06:13:56;3.30;;;2.28;;
12024;SDS011;6073;53.230;10.444;2023-04-26T06:16:21;5.55;;;2.20;;
12024;SDS011;6073;53.230;10.444;2023-04-26T06:18:47;5.25;;;2.38;;
12024;SDS011;6073;53.230;10.444;2023-04-26T06:21:13;6.10;;;2.22;;
12024;SDS011;6073;53.230;10.444;2023-04-26T06:23:38;4.97;;;2.70;;
12024;SDS011;6073;53.230;10.444;2023-04-26T06:26:04;6.10;;;2.60;;
12024;SDS011;6073;53.230;10.444;2023-04-26T06:28:29;6.68;;;2.60;;
12024;SDS011;6073;53.230;10.444;2023-04-26T06:30:55;6.57;;;2.78;;
12024;SDS011;6073;53.230;10.444;2023-04-26T06:33:21;4.43;;;2.38;;
12024;SDS011;6073;53.230;10.444;2023-04-26T06:35:49;5.95;;;2.78;;
12024;SDS011;6073;53.230;10.444;2023-04-26T06:38:41;7.22;;;2.35;;
12024;SDS011;6073;53.230;10.444;2023-04-26T06:41:07;6.05;;;2.53;;
12024;SDS011;6073;53.230;10.444;2023-04-26T06:43:32;4.35;;;2.47;;
12024;SDS011;6073;53.230;10.444;2023-04-26T06:45:58;4.78;;;2.17;;
12024;SDS011;6073;53.230;10.444;2023-04-26T06:48:23;4.30;;;2.25;;
12024;SDS011;6073;53.230;10.444;2023-04-26T06:50:49;5.10;;;2.40;;
12024;SDS011;6073;53.230;10.444;2023-04-26T06:53:15;6.22;;;2.70;;
12024;SDS011;6073;53.230;10.444;2023-04-26T06:55:40;5.55;;;2.55;;
12024;SDS011;6073;53.230;10.444;2023-04-26T06:58:06;6.50;;;2.72;;
12024;SDS011;6073;53.230;10.444;2023-04-26T07:00:31;6.45;;;2.28;;
12024;SDS011;6073;53.230;10.444;2023-04-26T07:02:57;7.55;;;2.75;;
12024;SDS011;6073;53.230;10.444;2023-04-26T07:05:22;5.28;;;2.88;;
12024;SDS011;6073;53.230;10.444;2023-04-26T07:07:48;6.45;;;2.53;;
12024;SDS011;6073;53.230;10.444;2023-04-26T07:10:14;4.22;;;2.90;;
12024;SDS011;6073;53.230;10.444;2023-04-26T07:12:40;3.92;;;2.33;;
12024;SDS011;6073;53.230;10.444;2023-04-26T07:15:05;6.05;;;2.70;;
12024;SDS011;6073;53.230;10.444;2023-04-26T07:17:32;4.45;;;2.42;;
12024;SDS011;6073;53.230;10.444;2023-04-26T07:19:57;6.30;;;2.70;;
12024;SDS011;6073;53.230;10.444;2023-04-26T07:22:23;5.45;;;2.80;;
12024;SDS011;6073;53.230;10.444;2023-04-26T07:24:48;5.05;;;2.60;;
12024;SDS011;6073;53.230;10.444;2023-04-26T07:27:14;6.25;;;2.75;;
12024;SDS011;6073;53.230;10.444;2023-04-26T07:29:40;5.85;;;2.88;;
12024;SDS011;6073;53.230;10.444;2023-04-26T07:32:06;5.82;;;2.95;;
12024;SDS011;6073;53.230;10.444;2023-04-26T07:34:31;7.68;;;3.00;;
12024;SDS011;6073;53.230;10.444;2023-04-26T07:36:57;6.63;;;3.25;;
12024;SDS011;6073;53.230;10.444;2023-04-26T07:39:22;6.82;;;2.80;;
12024;SDS011;6073;53.230;10.444;2023-04-26T07:41:48;7.78;;;2.90;;
12024;SDS011;6073;53.230;10.444;2023-04-26T07:44:14;5.35;;;3.30;;
12024;SDS011;6073;53.230;10.444;2023-04-26T07:46:39;6.03;;;3.00;;
12024;SDS011;6073;53.230;10.444;2023-04-26T07:49:05;9.82;;;3.30;;
12024;SDS011;6073;53.230;10.444;2023-04-26T07:51:31;4.18;;;3.00;;
12024;SDS011;6073;53.230;10.444;2023-04-26T07:53:57;6.63;;;3.10;;
12024;SDS011;6073;53.230;10.444;2023-04-26T07:56:25;5.50;;;2.70;;
12024;SDS011;6073;53.230;10.444;2023-04-26T07:58:51;4.07;;;2.42;;
12024;SDS011;6073;53.230;10.444;2023-04-26T08:01:17;6.38;;;3.00;;
12024;SDS011;6073;53.230;10.444;2023-04-26T08:03:42;5.78;;;2.97;;
12024;SDS011;6073;53.230;10.444;2023-04-26T08:06:08;7.22;;;2.60;;
12024;SDS011;6073;53.230;10.444;2023-04-26T08:08:34;7.15;;;2.80;;
12024;SDS011;6073;53.230;10.444;2023-04-26T08:11:06;4.60;;;2.45;;
12024;SDS011;6073;53.230;10.444;2023-04-26T08:13:33;6.68;;;2.90;;
12024;SDS011;6073;53.230;10.444;2023-04-26T08:15:59;7.32;;;2.78;;
12024;SDS011;6073;53.230;10.444;2023-04-26T08:18:25;3.92;;;2.58;;
12024;SDS011;6073;53.230;10.444;2023-04-26T08:20:50;5.28;;;2.60;;
12024;SDS011;6073;53.230;10.444;2023-04-26T08:23:19;5.90;;;2.50;;
12024;SDS011;6073;53.230;10.444;2023-04-26T08:25:45;5.53;;;2.40;;
12024;SDS011;6073;53.230;10.444;2023-04-26T08:28:10;3.72;;;2.25;;
12024;SDS011;6073;53.230;10.444;2023-04-26T08:30:38;5.53;;;2.45;;
12024;SDS011;6073;53.230;10.444;2023-04-26T08:33:04;4.60;;;2.35;;
12024;SDS011;6073;53.230;10.444;2023-04-26T08:35:30;4.13;;;2.17;;
12024;SDS011;6073;53.230;10.444;2023-04-26T08:37:56;5.63;;;2.10;;
12024;SDS011;6073;53.230;10.444;2023-04-26T08:40:22;5.28;;;2.30;;
12024;SDS011;6073;53.230;10.444;2023-04-26T08:42:48;4.78;;;1.90;;
12024;SDS011;6073;53.230;10.444;2023-04-26T08:45:16;3.25;;;1.90;;
12024;SDS011;6073;53.230;10.444;2023-04-26T08:47:43;4.07;;;2.20;;
12024;SDS011;6073;53.230;10.444;2023-04-26T08:50:11;4.22;;;2.30;;
12024;SDS011;6073;53.230;10.444;2023-04-26T08:52:39;3.95;;;1.83;;
12024;SDS011;6073;53.230;10.444;2023-04-26T08:55:06;5.05;;;1.85;;
12024;SDS011;6073;53.230;10.444;2023-04-26T08:57:34;3.20;;;1.85;;
12024;SDS011;6073;53.230;10.444;2023-04-26T09:00:03;5.13;;;1.58;;
12024;SDS011;6073;53.230;10.444;2023-04-26T09:02:30;4.07;;;2.28;;
12024;SDS011;6073;53.230;10.444;2023-04-26T09:04:56;5.72;;;2.40;;
12024;SDS011;6073;53.230;10.444;2023-04-26T09:09:50;5.35;;;1.90;;
12024;SDS011;6073;53.230;10.444;2023-04-26T09:12:19;3.88;;;2.15;;
12024;SDS011;6073;53.230;10.444;2023-04-26T09:14:45;6.18;;;2.35;;
12024;SDS011;6073;53.230;10.444;2023-04-26T09:17:24;5.20;;;2.20;;
12024;SDS011;6073;53.230;10.444;2023-04-26T09:19:50;3.42;;;2.22;;
12024;SDS011;6073;53.230;10.444;2023-04-26T09:22:26;5.68;;;2.40;;
12024;SDS011;6073;53.230;10.444;2023-04-26T09:25:00;7.45;;;2.33;;
12024;SDS011;6073;53.230;10.444;2023-04-26T09:27:33;3.58;;;2.00;;
12024;SDS011;6073;53.230;10.444;2023-04-26T09:30:16;5.00;;;2.33;;
12024;SDS011;6073;53.230;10.444;2023-04-26T09:35:20;6.75;;;2.20;;
12024;SDS011;6073;53.230;10.444;2023-04-26T09:40:20;4.22;;;2.08;;
12024;SDS011;6073;53.230;10.444;2023-04-26T09:42:46;3.95;;;2.30;;
12024;SDS011;6073;53.230;10.444;2023-04-26T09:45:13;5.47;;;2.33;;
12024;SDS011;6073;53.230;10.444;2023-04-26T09:47:41;3.15;;;2.10;;
12024;SDS011;6073;53.230;10.444;2023-04-26T09:50:07;4.15;;;2.45;;
12024;SDS011;6073;53.230;10.444;2023-04-26T09:52:41;5.05;;;1.90;;
12024;SDS011;6073;53.230;10.444;2023-04-26T09:55:08;4.85;;;2.10;;
12024;SDS011;6073;53.230;10.444;2023-04-26T09:57:41;5.38;;;2.30;;
12024;SDS011;6073;53.230;10.444;2023-04-26T10:00:08;5.00;;;2.60;;
12024;SDS011;6073;53.230;10.444;2023-04-26T10:02:36;3.65;;;2.30;;
12024;SDS011;6073;53.230;10.444;2023-04-26T10:05:02;9.20;;;2.63;;
12024;SDS011;6073;53.230;10.444;2023-04-26T10:07:28;6.85;;;2.25;;
12024;SDS011;6073;53.230;10.444;2023-04-26T10:09:54;3.65;;;1.63;;
12024;SDS011;6073;53.230;10.444;2023-04-26T10:12:22;3.88;;;1.52;;
12024;SDS011;6073;53.230;10.444;2023-04-26T10:14:47;5.13;;;1.70;;
12024;SDS011;6073;53.230;10.444;2023-04-26T10:17:13;2.90;;;1.70;;
12024;SDS011;6073;53.230;10.444;2023-04-26T10:19:40;2.97;;;1.65;;
12024;SDS011;6073;53.230;10.444;2023-04-26T10:22:09;4.82;;;2.05;;
12024;SDS011;6073;53.230;10.444;2023-04-26T10:24:45;5.28;;;1.77;;
12024;SDS011;6073;53.230;10.444;2023-04-26T10:27:12;4.78;;;1.90;;
12024;SDS011;6073;53.230;10.444;2023-04-26T10:32:19;2.42;;;1.58;;
12024;SDS011;6073;53.230;10.444;2023-04-26T10:35:07;4.40;;;1.40;;
12024;SDS011;6073;53.230;10.444;2023-04-26T10:37:36;3.83;;;2.08;;
12024;SDS011;6073;53.230;10.444;2023-04-26T10:40:22;3.47;;;1.50;;
12024;SDS011;6073;53.230;10.444;2023-04-26T10:42:50;2.67;;;1.52;;
12024;SDS011;6073;53.230;10.444;2023-04-26T10:45:36;3.78;;;1.48;;
12024;SDS011;6073;53.230;10.444;2023-04-26T10:51:26;3.17;;;1.60;;
12024;SDS011;6073;53.230;10.444;2023-04-26T10:59:06;2.17;;;1.55;;
12024;SDS011;6073;53.230;10.444;2023-04-26T11:01:39;5.25;;;2.00;;
12024;SDS011;6073;53.230;10.444;2023-04-26T11:04:09;3.88;;;1.67;;
12024;SDS011;6073;53.230;10.444;2023-04-26T11:06:48;4.78;;;1.90;;
12024;SDS011;6073;53.230;10.444;2023-04-26T11:09:34;5.80;;;1.80;;
12024;SDS011;6073;53.230;10.444;2023-04-26T11:12:02;5.00;;;1.77;;
12024;SDS011;6073;53.230;10.444;2023-04-26T11:14:29;2.47;;;1.70;;
12024;SDS011;6073;53.230;10.444;2023-04-26T11:16:57;2.63;;;1.85;;
12024;SDS011;6073;53.230;10.444;2023-04-26T11:19:22;3.53;;;1.60;;
12024;SDS011;6073;53.230;10.444;2023-04-26T11:21:48;3.90;;;1.58;;
12024;SDS011;6073;53.230;10.444;2023-04-26T11:24:14;2.13;;;1.40;;
12024;SDS011;6073;53.230;10.444;2023-04-26T11:26:40;4.13;;;1.50;;
12024;SDS011;6073;53.230;10.444;2023-04-26T11:29:08;2.45;;;1.50;;
12024;SDS011;6073;53.230;10.444;2023-04-26T11:31:37;4.85;;;1.40;;
12024;SDS011;6073;53.230;10.444;2023-04-26T11:34:03;3.03;;;1.35;;
12024;SDS011;6073;53.230;10.444;2023-04-26T11:36:29;3.28;;;1.63;;
12024;SDS011;6073;53.230;10.444;2023-04-26T11:38:54;3.13;;;1.40;;
12024;SDS011;6073;53.230;10.444;2023-04-26T11:41:21;1.85;;;1.50;;
12024;SDS011;6073;53.230;10.444;2023-04-26T11:43:48;5.53;;;1.40;;
12024;SDS011;6073;53.230;10.444;2023-04-26T11:46:13;4.10;;;1.50;;
12024;SDS011;6073;53.230;10.444;2023-04-26T11:48:39;5.25;;;2.00;;
12024;SDS011;6073;53.230;10.444;2023-04-26T11:51:05;2.70;;;1.60;;
12024;SDS011;6073;53.230;10.444;2023-04-26T11:56:17;2.03;;;1.40;;
12024;SDS011;6073;53.230;10.444;2023-04-26T11:58:52;2.95;;;1.83;;
12024;SDS011;6073;53.230;10.444;2023-04-26T12:01:21;2.50;;;1.50;;
12024;SDS011;6073;53.230;10.444;2023-04-26T12:03:51;2.65;;;1.40;;
12024;SDS011;6073;53.230;10.444;2023-04-26T12:06:29;3.17;;;1.80;;
12024;SDS011;6073;53.230;10.444;2023-04-26T12:08:59;2.88;;;2.17;;
12024;SDS011;6073;53.230;10.444;2023-04-26T12:11:26;3.42;;;1.95;;
12024;SDS011;6073;53.230;10.444;2023-04-26T12:13:51;5.47;;;2.40;;
12024;SDS011;6073;53.230;10.444;2023-04-26T12:16:17;4.13;;;2.00;;
12024;SDS011;6073;53.230;10.444;2023-04-26T12:18:48;3.92;;;2.00;;
12024;SDS011;6073;53.230;10.444;2023-04-26T12:21:15;4.28;;;2.00;;
12024;SDS011;6073;53.230;10.444;2023-04-26T12:23:41;3.72;;;2.25;;
12024;SDS011;6073;53.230;10.444;2023-04-26T12:26:11;3.17;;;2.13;;
12024;SDS011;6073;53.230;10.444;2023-04-26T12:28:36;5.05;;;2.00;;
12024;SDS011;6073;53.230;10.444;2023-04-26T12:31:02;4.53;;;1.80;;
12024;SDS011;6073;53.230;10.444;2023-04-26T12:33:28;3.30;;;1.83;;
12024;SDS011;6073;53.230;10.444;2023-04-26T12:35:54;3.15;;;2.15;;
12024;SDS011;6073;53.230;10.444;2023-04-26T12:38:21;2.10;;;1.83;;
12024;SDS011;6073;53.230;10.444;2023-04-26T12:40:47;3.05;;;1.98;;
12024;SDS011;6073;53.230;10.444;2023-04-26T12:43:13;4.32;;;1.90;;
12024;SDS011;6073;53.230;10.444;2023-04-26T12:45:40;3.33;;;2.15;;
12024;SDS011;6073;53.230;10.444;2023-04-26T12:48:06;3.30;;;2.08;;
12024;SDS011;6073;53.230;10.444;2023-04-26T12:50:32;4.07;;;2.25;;
12024;SDS011;6073;53.230;10.444;2023-04-26T12:52:57;5.72;;;2.20;;
12024;SDS011;6073;53.230;10.444;2023-04-26T12:55:23;5.78;;;2.20;;
12024;SDS011;6073;53.230;10.444;2023-04-26T12:57:49;7.40;;;2.10;;
12024;SDS011;6073;53.230;10.444;2023-04-26T13:00:15;3.10;;;1.85;;
12024;SDS011;6073;53.230;10.444;2023-04-26T13:02:45;5.50;;;2.20;;
12024;SDS011;6073;53.230;10.444;2023-04-26T13:05:11;4.32;;;2.00;;
12024;SDS011;6073;53.230;10.444;2023-04-26T13:07:37;2.45;;;1.90;;
12024;SDS011;6073;53.230;10.444;2023-04-26T13:10:04;7.32;;;2.13;;
12024;SDS011;6073;53.230;10.444;2023-04-26T13:12:30;4.97;;;1.80;;
12024;SDS011;6073;53.230;10.444;2023-04-26T13:14:56;4.68;;;2.30;;
12024;SDS011;6073;53.230;10.444;2023-04-26T13:17:24;2.63;;;2.10;;
12024;SDS011;6073;53.230;10.444;2023-04-26T13:19:51;4.80;;;2.20;;
12024;SDS011;6073;53.230;10.444;2023-04-26T13:22:17;5.78;;;2.42;;
12024;SDS011;6073;53.230;10.444;2023-04-26T13:24:43;3.47;;;1.85;;
12024;SDS011;6073;53.230;10.444;2023-04-26T13:27:09;4.57;;;1.75;;
12024;SDS011;6073;53.230;10.444;2023-04-26T13:29:35;3.03;;;1.70;;
12024;SDS011;6073;53.230;10.444;2023-04-26T13:32:00;3.17;;;1.50;;
12024;SDS011;6073;53.230;10.444;2023-04-26T13:34:27;3.53;;;1.70;;
12024;SDS011;6073;53.230;10.444;2023-04-26T13:36:54;2.40;;;1.80;;
12024;SDS011;6073;53.230;10.444;2023-04-26T13:39:24;4.03;;;1.75;;
12024;SDS011;6073;53.230;10.444;2023-04-26T13:41:52;4.63;;;2.00;;
12024;SDS011;6073;53.230;10.444;2023-04-26T13:44:18;2.72;;;1.48;;
12024;SDS011;6073;53.230;10.444;2023-04-26T13:46:44;3.15;;;1.75;;
12024;SDS011;6073;53.230;10.444;2023-04-26T13:49:10;2.47;;;1.60;;
12024;SDS011;6073;53.230;10.444;2023-04-26T13:51:35;4.13;;;1.50;;
12024;SDS011;6073;53.230;10.444;2023-04-26T13:54:01;2.60;;;1.50;;
12024;SDS011;6073;53.230;10.444;2023-04-26T13:56:31;4.03;;;1.67;;
12024;SDS011;6073;53.230;10.444;2023-04-26T13:58:57;4.45;;;1.73;;
12024;SDS011;6073;53.230;10.444;2023-04-26T14:01:26;5.15;;;1.80;;
12024;SDS011;6073;53.230;10.444;2023-04-26T14:03:51;2.85;;;1.42;;
12024;SDS011;6073;53.230;10.444;2023-04-26T14:06:17;2.47;;;1.55;;
12024;SDS011;6073;53.230;10.444;2023-04-26T14:08:43;3.65;;;1.75;;
12024;SDS011;6073;53.230;10.444;2023-04-26T14:11:08;2.30;;;1.38;;
12024;SDS011;6073;53.230;10.444;2023-04-26T14:13:35;3.15;;;1.70;;
12024;SDS011;6073;53.230;10.444;2023-04-26T14:16:01;5.53;;;1.85;;
12024;SDS011;6073;53.230;10.444;2023-04-26T14:18:27;4.47;;;2.15;;
12024;SDS011;6073;53.230;10.444;2023-04-26T14:20:52;2.05;;;1.42;;
12024;SDS011;6073;53.230;10.444;2023-04-26T14:23:18;4.50;;;1.83;;
12024;SDS011;6073;53.230;10.444;2023-04-26T14:25:43;4.22;;;1.80;;
12024;SDS011;6073;53.230;10.444;2023-04-26T14:28:09;5.93;;;1.92;;
12024;SDS011;6073;53.230;10.444;2023-04-26T14:30:35;3.35;;;1.70;;
12024;SDS011;6073;53.230;10.444;2023-04-26T14:33:00;2.45;;;1.75;;
12024;SDS011;6073;53.230;10.444;2023-04-26T14:35:26;6.00;;;2.33;;
12024;SDS011;6073;53.230;10.444;2023-04-26T14:37:51;4.55;;;1.73;;
12024;SDS011;6073;53.230;10.444;2023-04-26T14:40:17;2.20;;;1.50;;
12024;SDS011;6073;53.230;10.444;2023-04-26T14:42:42;4.40;;;1.75;;
12024;SDS011;6073;53.230;10.444;2023-04-26T14:45:10;2.75;;;1.42;;
12024;SDS011;6073;53.230;10.444;2023-04-26T14:47:39;6.97;;;2.17;;
12024;SDS011;6073;53.230;10.444;2023-04-26T14:50:05;4.10;;;1.85;;
12024;SDS011;6073;53.230;10.444;2023-04-26T14:52:35;4.93;;;2.08;;
12024;SDS011;6073;53.230;10.444;2023-04-26T14:55:07;3.08;;;1.80;;
12024;SDS011;6073;53.230;10.444;2023-04-26T14:57:54;4.18;;;1.90;;
12024;SDS011;6073;53.230;10.444;2023-04-26T15:00:19;3.53;;;1.55;;
12024;SDS011;6073;53.230;10.444;2023-04-26T15:02:46;1.92;;;1.60;;
12024;SDS011;6073;53.230;10.444;2023-04-26T15:05:12;5.85;;;1.77;;
12024;SDS011;6073;53.230;10.444;2023-04-26T15:07:38;2.47;;;1.25;;
12024;SDS011;6073;53.230;10.444;2023-04-26T15:10:04;3.13;;;1.60;;